Time;durP1;ratioP1;P1;durP2;ratioP2;P2;SDS_P1;SDS_P2;PMS_P1;PMS_P2;Temp;Humidity;BMP_temperature;BMP_pressure;BME280_temperature;BME280_humidity;BME280_pressure;Samples;Min_cycle;Max_cycle;Signal;HPM_P1;HPM_P2
2022/03/23 00:00:59;;;;;;;;;;;;;;;4.20;56.48;101020.78;5009355;28;20542;-92
2022/03/23 00:03:24;;;;;;;;;;;;;;;3.94;58.01;101023.44;5009472;28;19952;-89
2022/03/23 00:05:50;;;;;;;;;;;;;;;4.06;57.35;101017.72;5008509;28;19929;-90
2022/03/23 00:08:15;;;;;;;;;;;;;;;4.00;57.27;101010.59;5010393;28;20324;-91
2022/03/23 00:10:41;;;;;;;;;;;;;;;3.84;57.93;101008.28;5009783;28;19922;-90
2022/03/23 00:13:07;;;;;;;;;;;;;;;3.89;57.76;101017.16;5041721;28;19921;-89
2022/03/23 00:15:32;;;;;;;;;;;;;;;3.66;57.62;101022.50;5023298;28;19925;-89
2022/03/23 00:17:58;;;;;;;;;;;;;;;4.07;56.53;101024.72;5005605;28;19928;-91
2022/03/23 00:20:24;;;;;;;;;;;;;;;4.14;56.23;101029.31;4989703;28;19984;-88
2022/03/23 00:22:50;;;;;;;;;;;;;;;3.56;58.52;101025.63;5005022;28;19928;-91
2022/03/23 00:25:16;;;;;;;;;;;;;;;3.60;57.88;101027.53;5014371;28;20008;-91
2022/03/23 00:27:41;;;;;;;;;;;;;;;3.44;58.78;101018.25;5041080;28;20008;-91
2022/03/23 00:30:08;;;;;;;;;;;;;;;3.39;58.64;101028.53;5027772;28;19925;-88
2022/03/23 00:32:33;;;;;;;;;;;;;;;3.09;59.69;101016.97;5039090;28;20434;-90
2022/03/23 00:34:59;;;;;;;;;;;;;;;3.23;59.08;101015.78;5040562;28;19921;-90
2022/03/23 00:37:24;;;;;;;;;;;;;;;3.27;59.16;101014.16;5009097;28;20399;-91
2022/03/23 00:39:50;;;;;;;;;;;;;;;3.29;59.32;101012.50;5041132;28;20004;-92
2022/03/23 00:42:16;;;;;;;;;;;;;;;3.40;58.86;101013.78;5036746;28;20333;-91
2022/03/23 00:44:42;;;;;;;;;;;;;;;3.37;58.52;101022.38;5008892;28;20396;-93
2022/03/23 00:47:07;;;;;;;;;;;;;;;3.37;58.55;101022.38;5041437;28;19993;-90
2022/03/23 00:49:33;;;;;;;;;;;;;;;3.22;59.30;101021.81;5040346;28;20426;-89
2022/03/23 00:51:58;;;;;;;;;;;;;;;3.31;58.76;101016.06;5021695;28;20375;-91
2022/03/23 00:54:24;;;;;;;;;;;;;;;3.33;58.60;101017.00;5013162;28;19936;-90
2022/03/23 00:56:51;;;;;;;;;;;;;;;3.42;58.69;101025.16;5040267;28;19964;-91
2022/03/23 00:59:17;;;;;;;;;;;;;;;3.56;58.66;101013.47;5040280;28;19925;-90
2022/03/23 01:01:45;;;;;;;;;;;;;;;3.56;58.50;101020.41;5040119;28;19925;-89
2022/03/23 01:04:11;;;;;;;;;;;;;;;3.45;58.84;101014.81;5022802;28;19928;-91
2022/03/23 01:06:36;;;;;;;;;;;;;;;3.48;58.80;101007.09;5006563;28;19921;-90
2022/03/23 01:09:02;;;;;;;;;;;;;;;3.43;58.38;101008.66;5007657;28;20315;-89
2022/03/23 01:11:27;;;;;;;;;;;;;;;3.32;58.53;101007.38;5008471;28;19978;-91
2022/03/23 01:13:53;;;;;;;;;;;;;;;3.24;58.76;101009.72;5024757;28;20027;-90
2022/03/23 01:16:18;;;;;;;;;;;;;;;3.21;59.02;101005.31;4998129;28;19929;-89
2022/03/23 01:18:43;;;;;;;;;;;;;;;3.18;59.25;101005.19;5003460;28;20153;-89
2022/03/23 01:21:09;;;;;;;;;;;;;;;3.23;58.63;100998.41;4995284;28;19932;-90
2022/03/23 01:23:34;;;;;;;;;;;;;;;3.34;58.66;101005.72;5023091;28;19940;-90
2022/03/23 01:25:59;;;;;;;;;;;;;;;3.40;58.11;101001.59;5032363;28;19933;-90
2022/03/23 01:28:25;;;;;;;;;;;;;;;3.40;58.25;100995.53;5003786;28;20303;-90
2022/03/23 01:30:51;;;;;;;;;;;;;;;3.46;58.22;100997.44;5018860;28;19932;-90
2022/03/23 01:33:17;;;;;;;;;;;;;;;3.46;58.19;101003.56;5039054;28;19928;-88
2022/03/23 01:35:42;;;;;;;;;;;;;;;3.29;58.01;101000.34;5033146;28;19926;-90
2022/03/23 01:38:07;;;;;;;;;;;;;;;3.34;57.42;101000.53;5039369;28;19922;-88
2022/03/23 01:40:33;;;;;;;;;;;;;;;3.28;57.63;101003.78;5007916;28;19949;-90
2022/03/23 01:42:58;;;;;;;;;;;;;;;3.34;57.78;101004.00;5023410;28;19924;-90
2022/03/23 01:45:24;;;;;;;;;;;;;;;3.32;58.12;101005.69;5011482;28;19921;-91
2022/03/23 01:47:49;;;;;;;;;;;;;;;3.25;58.52;101011.50;5023211;28;19921;-91
2022/03/23 01:50:14;;;;;;;;;;;;;;;3.10;58.71;101014.44;5006797;28;20459;-87
2022/03/23 01:52:40;;;;;;;;;;;;;;;3.23;58.75;101008.84;5007150;28;19925;-87
2022/03/23 01:55:11;;;;;;;;;;;;;;;3.05;58.90;101016.88;5005481;28;20323;-88
2022/03/23 01:57:38;;;;;;;;;;;;;;;3.15;59.27;101018.13;5007310;28;19922;-87
2022/03/23 02:00:05;;;;;;;;;;;;;;;2.98;59.31;101013.97;5022363;28;20098;-89
2022/03/23 02:02:31;;;;;;;;;;;;;;;3.08;59.27;101013.50;5023118;28;19921;-88
2022/03/23 02:04:56;;;;;;;;;;;;;;;2.99;59.56;101015.78;5029588;28;19948;-90
2022/03/23 02:07:22;;;;;;;;;;;;;;;3.22;59.43;101011.38;5005371;28;19928;-89
2022/03/23 02:09:49;;;;;;;;;;;;;;;3.30;58.58;101012.53;5009652;28;19925;-89
2022/03/23 02:12:15;;;;;;;;;;;;;;;3.27;58.70;101009.81;5038481;28;19925;-89
2022/03/23 02:14:41;;;;;;;;;;;;;;;3.13;58.97;101013.66;5027983;28;19930;-87
2022/03/23 02:17:06;;;;;;;;;;;;;;;3.36;58.29;101004.94;5006581;28;19976;-88
2022/03/23 02:19:32;;;;;;;;;;;;;;;3.11;59.17;101007.53;5037866;28;19928;-87
2022/03/23 02:21:57;;;;;;;;;;;;;;;3.16;59.22;101011.16;5005993;28;19921;-88
2022/03/23 02:24:28;;;;;;;;;;;;;;;3.26;58.43;101013.28;5021001;28;20311;-89
2022/03/23 02:26:53;;;;;;;;;;;;;;;3.12;58.68;101022.31;5038395;28;19928;-88
2022/03/23 02:29:20;;;;;;;;;;;;;;;2.96;59.34;101021.75;5039328;28;20594;-89
2022/03/23 02:31:45;;;;;;;;;;;;;;;3.16;58.58;101013.78;5007765;28;19925;-87
2022/03/23 02:34:11;;;;;;;;;;;;;;;3.20;58.90;101018.28;5030381;28;19921;-87
2022/03/23 02:36:36;;;;;;;;;;;;;;;3.03;59.11;101023.75;5013465;28;19922;-87
2022/03/23 02:39:02;;;;;;;;;;;;;;;3.15;58.84;101020.72;5013600;28;19928;-87
2022/03/23 02:41:28;;;;;;;;;;;;;;;3.02;59.18;101018.50;5011247;28;20265;-87
2022/03/23 02:43:53;;;;;;;;;;;;;;;3.13;58.74;101017.16;5013043;28;19965;-86
2022/03/23 02:46:20;;;;;;;;;;;;;;;3.36;57.94;101015.38;5012317;28;19960;-87
2022/03/23 02:48:46;;;;;;;;;;;;;;;3.55;57.80;101018.63;5012838;28;19980;-87
2022/03/23 02:51:11;;;;;;;;;;;;;;;3.34;58.38;101011.84;5012294;28;19965;-87
2022/03/23 03:02:12;;;;;;;;;;;;;;;3.26;58.70;101022.81;5012749;28;20649;-88
2022/03/23 03:04:38;;;;;;;;;;;;;;;3.15;58.66;101020.72;5010586;28;19925;-88
2022/03/23 03:07:03;;;;;;;;;;;;;;;3.14;58.18;100992.88;5013425;28;19922;-88
2022/03/23 03:09:29;;;;;;;;;;;;;;;3.24;58.39;101017.53;5027430;28;20019;-88
2022/03/23 03:11:54;;;;;;;;;;;;;;;3.32;57.69;101015.19;5011784;28;20016;-88
2022/03/23 03:14:20;;;;;;;;;;;;;;;3.49;57.37;101019.31;5028283;28;19957;-88
2022/03/23 03:16:45;;;;;;;;;;;;;;;3.57;56.79;101016.97;5011561;28;19921;-88
2022/03/23 03:19:12;;;;;;;;;;;;;;;3.62;57.04;101023.22;5011475;28;20738;-88
2022/03/23 03:21:37;;;;;;;;;;;;;;;3.67;56.78;101020.78;5011676;28;19924;-88
2022/03/23 03:24:03;;;;;;;;;;;;;;;3.41;57.31;101015.53;5011602;28;19926;-88
2022/03/23 03:26:30;;;;;;;;;;;;;;;3.40;57.51;101019.88;5011290;28;19929;-88
2022/03/23 03:28:56;;;;;;;;;;;;;;;3.23;57.61;101023.59;5041357;28;20429;-88
2022/03/23 03:31:21;;;;;;;;;;;;;;;3.10;58.08;101022.25;5012555;28;19921;-87
2022/03/23 03:33:46;;;;;;;;;;;;;;;3.13;57.93;101019.75;5012406;28;19921;-88
2022/03/23 03:36:12;;;;;;;;;;;;;;;3.05;58.31;101026.44;5044948;28;20399;-89
2022/03/23 03:38:38;;;;;;;;;;;;;;;2.78;59.06;101029.78;5012894;28;19925;-87
2022/03/23 03:41:04;;;;;;;;;;;;;;;2.88;59.19;101027.53;5011747;28;19926;-88
2022/03/23 03:43:30;;;;;;;;;;;;;;;2.93;58.79;101024.25;5008754;28;19932;-87
2022/03/23 03:45:55;;;;;;;;;;;;;;;2.93;58.56;101024.25;5011139;28;19921;-91
2022/03/23 03:48:21;;;;;;;;;;;;;;;2.92;58.75;101014.66;5008036;28;20016;-90
2022/03/23 03:50:46;;;;;;;;;;;;;;;2.88;58.16;101022.31;5025890;28;20010;-89
2022/03/23 03:53:12;;;;;;;;;;;;;;;2.77;58.47;101024.53;5010541;28;19925;-90
2022/03/23 03:55:37;;;;;;;;;;;;;;;2.72;58.67;101023.44;5039673;28;19980;-87
2022/03/23 03:58:08;;;;;;;;;;;;;;;2.54;59.56;101021.03;5041876;28;19921;-85
2022/03/23 04:00:34;;;;;;;;;;;;;;;2.61;59.34;101020.41;5013089;28;19933;-86
2022/03/23 04:02:59;;;;;;;;;;;;;;;2.75;58.45;101016.63;5010387;28;19979;-86
2022/03/23 04:05:25;;;;;;;;;;;;;;;2.83;57.75;101011.72;5010689;28;19921;-90
2022/03/23 04:07:50;;;;;;;;;;;;;;;2.80;57.18;101001.19;5008482;28;19983;-90
2022/03/23 04:10:16;;;;;;;;;;;;;;;2.46;57.99;100999.91;4989609;28;19925;-89
2022/03/23 04:12:41;;;;;;;;;;;;;;;2.66;57.72;101001.53;4991254;28;19922;-88
2022/03/23 04:15:07;;;;;;;;;;;;;;;2.75;57.41;101005.31;5046966;28;20749;-89
2022/03/23 04:17:32;;;;;;;;;;;;;;;2.59;57.47;101009.06;5045771;28;19967;-91
2022/03/23 04:19:58;;;;;;;;;;;;;;;2.42;58.35;101013.63;5039512;28;20009;-91
2022/03/23 04:22:23;;;;;;;;;;;;;;;2.55;57.84;101009.75;5009555;28;19928;-92
2022/03/23 04:24:48;;;;;;;;;;;;;;;2.65;57.70;101011.91;5010441;28;19981;-91
2022/03/23 04:27:14;;;;;;;;;;;;;;;2.49;57.60;101013.91;5043279;28;19963;-89
2022/03/23 04:29:41;;;;;;;;;;;;;;;2.54;57.59;101006.28;5025224;28;20367;-89
2022/03/23 04:32:10;;;;;;;;;;;;;;;2.84;56.76;100996.13;5011100;28;19921;-91
2022/03/23 04:34:35;;;;;;;;;;;;;;;3.01;56.06;101001.97;5032946;28;19930;-89
2022/03/23 04:37:01;;;;;;;;;;;;;;;3.33;55.22;100998.72;5029469;28;20403;-90
2022/03/23 04:39:26;;;;;;;;;;;;;;;3.54;54.58;100994.25;5007445;28;19965;-92
2022/03/23 04:41:52;;;;;;;;;;;;;;;3.71;54.04;101002.66;5041516;28;19918;-91
2022/03/23 04:44:17;;;;;;;;;;;;;;;3.84;53.66;101001.34;5037454;28;19932;-89
2022/03/23 04:46:42;;;;;;;;;;;;;;;3.96;53.46;101007.81;5029244;28;19921;-88
2022/03/23 04:49:08;;;;;;;;;;;;;;;3.98;52.53;101004.41;5011287;28;19944;-88
2022/03/23 04:51:34;;;;;;;;;;;;;;;3.88;52.50;101008.44;5005769;28;20024;-88
2022/03/23 04:54:00;;;;;;;;;;;;;;;3.40;53.67;101009.44;5022728;28;20004;-89
2022/03/23 04:56:25;;;;;;;;;;;;;;;2.79;55.70;101018.50;5041008;28;20470;-89
2022/03/23 04:58:51;;;;;;;;;;;;;;;2.87;56.21;101021.41;5045381;28;20012;-89
2022/03/23 05:01:16;;;;;;;;;;;;;;;2.96;55.98;101010.44;5009802;28;19921;-90
2022/03/23 05:03:42;;;;;;;;;;;;;;;3.19;54.83;101019.97;5038394;28;19922;-88
2022/03/23 05:06:07;;;;;;;;;;;;;;;3.09;55.24;101017.91;5002010;28;19951;-86
2022/03/23 05:08:32;;;;;;;;;;;;;;;3.09;55.50;101015.28;5009320;28;20403;-86
2022/03/23 05:10:58;;;;;;;;;;;;;;;3.32;55.40;101020.41;5025694;28;19929;-87
2022/03/23 05:13:23;;;;;;;;;;;;;;;3.44;54.96;101019.97;5007160;28;19926;-86
2022/03/23 05:15:49;;;;;;;;;;;;;;;3.48;55.28;101019.25;5018642;28;19931;-84
2022/03/23 05:18:14;;;;;;;;;;;;;;;3.50;56.05;101028.03;5027496;28;19921;-87
2022/03/23 05:20:39;;;;;;;;;;;;;;;3.70;56.17;101026.09;5020506;28;19922;-83
2022/03/23 05:23:05;;;;;;;;;;;;;;;3.86;55.72;101030.09;5008634;28;19921;-87
2022/03/23 05:25:30;;;;;;;;;;;;;;;3.82;55.75;101033.47;5033178;28;19925;-86
2022/03/23 05:27:56;;;;;;;;;;;;;;;3.72;56.18;101025.34;5008538;28;20048;-85
2022/03/23 05:30:21;;;;;;;;;;;;;;;3.96;56.05;101033.94;5008805;28;20319;-84
2022/03/23 05:32:47;;;;;;;;;;;;;;;3.89;55.69;101027.59;5008427;28;20402;-84
2022/03/23 05:35:13;;;;;;;;;;;;;;;3.98;55.79;101034.88;5008201;28;19925;-83
2022/03/23 05:37:39;;;;;;;;;;;;;;;4.20;55.37;101039.06;5007721;28;19929;-83
2022/03/23 05:40:05;;;;;;;;;;;;;;;4.10;55.23;101037.88;5007477;28;19948;-83
2022/03/23 05:42:30;;;;;;;;;;;;;;;4.37;55.12;101045.72;5007596;28;20024;-83
2022/03/23 05:44:55;;;;;;;;;;;;;;;4.42;55.04;101038.03;5007598;28;20459;-82
2022/03/23 05:47:21;;;;;;;;;;;;;;;4.76;54.63;101034.72;5008512;28;19949;-83
2022/03/23 05:49:46;;;;;;;;;;;;;;;4.68;54.65;101035.31;5007952;28;19925;-82
2022/03/23 05:52:12;;;;;;;;;;;;;;;5.19;53.64;101035.09;5007884;28;20370;-84
2022/03/23 05:54:38;;;;;;;;;;;;;;;5.42;53.21;101042.69;5005000;28;20021;-84
2022/03/23 05:57:03;;;;;;;;;;;;;;;5.50;52.67;101033.28;4988544;28;20028;-83
2022/03/23 05:59:29;;;;;;;;;;;;;;;5.50;52.73;101042.06;5005353;28;19979;-84
2022/03/23 06:01:54;;;;;;;;;;;;;;;6.11;52.05;101043.66;5022830;28;19972;-83
2022/03/23 06:04:20;;;;;;;;;;;;;;;6.45;51.07;101037.47;5008271;28;19925;-84
2022/03/23 06:06:45;;;;;;;;;;;;;;;6.41;50.03;101040.84;5008072;28;20016;-84
2022/03/23 06:09:12;;;;;;;;;;;;;;;6.59;50.41;101048.28;5005424;28;19986;-83
2022/03/23 06:11:38;;;;;;;;;;;;;;;6.17;50.74;101051.66;5007003;28;19925;-83
2022/03/23 06:14:03;;;;;;;;;;;;;;;6.45;50.58;101040.97;5007084;28;20163;-83
2022/03/23 06:16:28;;;;;;;;;;;;;;;6.99;50.71;101033.41;5007490;28;19936;-84
2022/03/23 06:18:53;;;;;;;;;;;;;;;6.97;50.40;101036.00;5006697;28;19937;-83
2022/03/23 06:21:19;;;;;;;;;;;;;;;7.35;49.67;101035.00;5007450;28;19928;-84
2022/03/23 06:23:44;;;;;;;;;;;;;;;7.32;49.43;101030.59;5007821;28;20319;-84
2022/03/23 06:26:09;;;;;;;;;;;;;;;7.49;47.95;101027.38;5006260;28;20496;-84
2022/03/23 06:28:35;;;;;;;;;;;;;;;7.69;48.42;101031.28;5006081;28;19932;-85
2022/03/23 06:31:01;;;;;;;;;;;;;;;7.96;47.31;101023.88;5007807;28;19929;-85
2022/03/23 06:33:26;;;;;;;;;;;;;;;8.08;46.13;101018.81;4988626;28;19922;-87
2022/03/23 06:35:52;;;;;;;;;;;;;;;8.41;46.82;101022.81;5000706;28;20410;-85
2022/03/23 06:38:18;;;;;;;;;;;;;;;8.91;44.40;101022.69;5011356;28;19979;-85
2022/03/23 06:40:44;;;;;;;;;;;;;;;8.77;43.84;101030.41;5042882;28;19924;-85
2022/03/23 06:43:09;;;;;;;;;;;;;;;8.68;44.90;101024.09;5009349;28;19925;-85
2022/03/23 06:45:35;;;;;;;;;;;;;;;8.83;42.54;101021.69;5006783;28;19926;-85
2022/03/23 06:48:01;;;;;;;;;;;;;;;9.05;43.32;101020.22;5007372;28;20481;-86
2022/03/23 06:50:26;;;;;;;;;;;;;;;9.14;41.71;101024.72;5007304;28;19972;-85
2022/03/23 06:52:51;;;;;;;;;;;;;;;9.22;41.35;101023.06;5039765;28;20354;-85
2022/03/23 06:55:17;;;;;;;;;;;;;;;9.43;41.50;101019.78;5006166;28;19948;-86
2022/03/23 06:57:42;;;;;;;;;;;;;;;9.80;39.27;101025.41;5007466;28;19964;-84
2022/03/23 07:00:13;;;;;;;;;;;;;;;9.70;39.39;101017.41;5007631;28;19956;-84
2022/03/23 07:02:42;;;;;;;;;;;;;;;9.68;39.73;101018.28;5007225;28;19917;-84
2022/03/23 07:05:08;;;;;;;;;;;;;;;10.06;39.45;101010.72;5007866;28;19921;-84
2022/03/23 07:07:34;;;;;;;;;;;;;;;10.27;37.78;101013.53;5007413;28;19917;-85
2022/03/23 07:09:59;;;;;;;;;;;;;;;10.46;38.53;101013.69;5007306;28;19922;-86
2022/03/23 07:12:25;;;;;;;;;;;;;;;11.09;39.32;101012.25;5006502;28;19921;-86
2022/03/23 07:14:50;;;;;;;;;;;;;;;11.53;38.62;101004.44;5007268;28;20331;-85
2022/03/23 07:17:17;;;;;;;;;;;;;;;11.13;37.23;101007.84;5022717;28;19960;-85
2022/03/23 07:19:42;;;;;;;;;;;;;;;10.83;36.86;101011.22;5008977;28;20388;-86
2022/03/23 07:22:08;;;;;;;;;;;;;;;11.08;36.20;101014.88;5010748;28;19924;-86
2022/03/23 07:24:33;;;;;;;;;;;;;;;10.54;36.63;101012.84;5010911;28;20367;-87
2022/03/23 07:26:59;;;;;;;;;;;;;;;10.97;36.11;101012.19;5011169;28;20396;-86
2022/03/23 07:29:25;;;;;;;;;;;;;;;10.97;36.06;101006.91;5011081;28;19922;-86
2022/03/23 07:31:50;;;;;;;;;;;;;;;11.31;36.79;101011.41;5026263;28;19932;-87
2022/03/23 07:34:18;;;;;;;;;;;;;;;11.76;37.31;101008.00;5010842;28;19921;-86
2022/03/23 07:36:45;;;;;;;;;;;;;;;11.53;35.30;100999.16;5010354;28;19918;-86
2022/03/23 07:39:15;;;;;;;;;;;;;;;11.06;35.27;100995.47;5010707;28;19926;-85
2022/03/23 07:41:40;;;;;;;;;;;;;;;11.34;34.99;101001.75;5010677;28;19918;-86
2022/03/23 07:44:05;;;;;;;;;;;;;;;11.19;35.06;101004.34;5010393;28;19925;-86
2022/03/23 07:46:31;;;;;;;;;;;;;;;11.76;33.77;101000.06;5010335;28;20408;-87
2022/03/23 07:48:56;;;;;;;;;;;;;;;11.78;33.04;101002.72;5025434;28;19922;-87
2022/03/23 07:51:24;;;;;;;;;;;;;;;11.48;33.71;100991.22;5010202;28;19925;-88
2022/03/23 07:53:49;;;;;;;;;;;;;;;11.62;34.23;100993.88;5010510;28;19929;-87
2022/03/23 07:56:15;;;;;;;;;;;;;;;11.46;32.96;100996.50;5009004;28;19917;-86
2022/03/23 07:58:40;;;;;;;;;;;;;;;11.08;33.91;100991.13;5009573;28;19921;-88
2022/03/23 08:01:05;;;;;;;;;;;;;;;11.21;34.39;100986.75;5010446;28;20376;-86
2022/03/23 08:03:30;;;;;;;;;;;;;;;10.97;33.09;100988.44;5042265;28;20008;-86
2022/03/23 08:05:56;;;;;;;;;;;;;;;10.96;33.83;100989.28;5042113;28;19918;-86
2022/03/23 08:08:23;;;;;;;;;;;;;;;11.17;32.17;100983.22;5009961;28;19917;-86
2022/03/23 08:10:48;;;;;;;;;;;;;;;11.49;32.73;100986.81;5042306;28;20417;-85
2022/03/23 08:13:16;;;;;;;;;;;;;;;11.52;30.96;100986.81;5010179;28;19925;-87
2022/03/23 08:15:41;;;;;;;;;;;;;;;11.64;31.16;100982.41;5009839;28;19929;-87
2022/03/23 08:18:06;;;;;;;;;;;;;;;11.68;31.94;100970.09;5009871;28;19918;-87
2022/03/23 08:20:32;;;;;;;;;;;;;;;12.08;31.61;100969.25;5009331;28;19941;-86
2022/03/23 08:22:58;;;;;;;;;;;;;;;11.71;29.06;100977.13;5024939;28;19921;-88
2022/03/23 08:25:24;;;;;;;;;;;;;;;11.97;30.86;100974.53;5009623;28;20063;-86
2022/03/23 08:27:49;;;;;;;;;;;;;;;11.13;32.85;100970.00;5009705;28;19921;-85
2022/03/23 08:30:14;;;;;;;;;;;;;;;11.76;31.28;100960.41;5009412;28;20016;-84
2022/03/23 08:32:40;;;;;;;;;;;;;;;12.16;32.66;100964.84;5009333;28;19977;-85
2022/03/23 08:35:06;;;;;;;;;;;;;;;12.18;31.66;100963.94;5042037;28;19928;-84
2022/03/23 08:37:32;;;;;;;;;;;;;;;12.03;31.35;100965.72;5009471;28;19996;-86
2022/03/23 08:39:57;;;;;;;;;;;;;;;11.75;30.01;100968.34;5024412;28;20467;-85
2022/03/23 08:42:22;;;;;;;;;;;;;;;11.58;29.77;100968.31;5009591;28;20343;-84
2022/03/23 08:44:48;;;;;;;;;;;;;;;12.19;30.23;100972.78;5009629;28;19921;-85
2022/03/23 08:47:13;;;;;;;;;;;;;;;12.57;29.14;100969.16;5009550;28;19967;-86
2022/03/23 08:49:39;;;;;;;;;;;;;;;12.84;30.33;100972.59;5008941;28;20015;-85
2022/03/23 08:52:05;;;;;;;;;;;;;;;12.53;29.44;100968.28;5009325;28;20067;-86
2022/03/23 08:54:31;;;;;;;;;;;;;;;12.46;30.21;100971.81;5007780;28;20402;-86
2022/03/23 08:56:57;;;;;;;;;;;;;;;12.33;29.74;100968.34;5008758;28;20035;-86
2022/03/23 08:59:22;;;;;;;;;;;;;;;12.35;29.38;100970.97;5008747;28;19929;-86
2022/03/23 09:01:48;;;;;;;;;;;;;;;11.91;28.92;100972.75;5008879;28;19924;-85
2022/03/23 09:04:14;;;;;;;;;;;;;;;12.36;30.59;100965.69;5008873;28;19929;-86
2022/03/23 09:06:40;;;;;;;;;;;;;;;12.62;29.38;100958.53;5008858;28;19921;-86
2022/03/23 09:09:05;;;;;;;;;;;;;;;12.49;29.31;100961.22;5008847;28;19925;-86
2022/03/23 09:11:31;;;;;;;;;;;;;;;12.62;29.44;100955.91;5008640;28;20312;-85
2022/03/23 09:13:57;;;;;;;;;;;;;;;12.32;29.09;100953.31;5009016;28;19917;-85
2022/03/23 09:16:23;;;;;;;;;;;;;;;12.52;30.32;100944.47;5008423;28;19968;-85
2022/03/23 09:18:49;;;;;;;;;;;;;;;12.99;30.45;100939.84;5009079;28;19999;-85
2022/03/23 09:21:15;;;;;;;;;;;;;;;13.11;28.33;100942.44;5008167;28;19926;-85
2022/03/23 09:23:40;;;;;;;;;;;;;;;12.82;28.66;100942.59;5007637;28;19921;-86
2022/03/23 09:26:09;;;;;;;;;;;;;;;12.18;29.16;100934.84;5008770;28;19926;-86
2022/03/23 09:28:34;;;;;;;;;;;;;;;12.21;31.02;100935.72;5008162;28;19929;-86
2022/03/23 09:31:00;;;;;;;;;;;;;;;12.18;30.64;100933.97;5040301;28;19922;-86
2022/03/23 09:33:25;;;;;;;;;;;;;;;12.00;30.24;100930.47;5007955;28;19925;-86
2022/03/23 09:35:51;;;;;;;;;;;;;;;12.30;30.58;100936.59;5008700;28;19968;-86
2022/03/23 09:38:16;;;;;;;;;;;;;;;12.54;29.32;100926.81;5007864;28;20004;-86
2022/03/23 09:40:45;;;;;;;;;;;;;;;12.38;30.12;100931.28;5008129;28;19928;-85
2022/03/23 09:43:14;;;;;;;;;;;;;;;12.14;29.49;100930.47;5007959;28;19926;-85
2022/03/23 09:45:48;;;;;;;;;;;;;;;12.27;29.83;100933.94;5007436;28;19925;-86
2022/03/23 09:48:16;;;;;;;;;;;;;;;12.77;29.12;100923.19;5007685;28;19932;-85
2022/03/23 09:50:43;;;;;;;;;;;;;;;13.22;31.40;100926.47;5007191;28;20415;-86
2022/03/23 09:53:09;;;;;;;;;;;;;;;13.41;31.14;100927.28;5008246;28;20319;-85
2022/03/23 09:55:36;;;;;;;;;;;;;;;13.19;27.92;100915.91;5007135;28;19917;-84
2022/03/23 09:58:02;;;;;;;;;;;;;;;12.79;27.92;100910.81;5007738;28;19932;-85
2022/03/23 10:00:33;;;;;;;;;;;;;;;12.49;28.21;100913.59;5008275;28;19929;-86
2022/03/23 10:02:58;;;;;;;;;;;;;;;12.52;29.06;100916.22;5007589;28;20040;-85
2022/03/23 10:05:42;;;;;;;;;;;;;;;12.51;28.44;100900.34;5008019;28;20565;-86
2022/03/23 10:08:14;;;;;;;;;;;;;;;12.59;27.23;100906.50;5007724;28;19924;-86
2022/03/23 10:11:18;;;;;;;;;;;;;;;12.33;27.83;100906.59;5039584;28;19968;-86
2022/03/23 10:14:01;;;;;;;;;;;;;;;12.91;27.55;100905.47;5043947;28;19963;-87
2022/03/23 10:16:45;;;;;;;;;;;;;;;12.86;27.06;100894.91;5044593;28;20338;-85
2022/03/23 10:19:10;;;;;;;;;;;;;;;12.74;28.69;100887.00;5018687;28;20037;-86
2022/03/23 10:21:36;;;;;;;;;;;;;;;12.64;27.13;100886.19;5007867;28;20683;-86
2022/03/23 10:24:02;;;;;;;;;;;;;;;12.78;27.06;100887.91;5007076;28;19925;-85
2022/03/23 10:26:28;;;;;;;;;;;;;;;13.05;29.19;100881.53;5007779;28;20016;-85
2022/03/23 10:28:54;;;;;;;;;;;;;;;13.04;29.59;100882.47;5007358;28;19972;-85
2022/03/23 10:31:22;;;;;;;;;;;;;;;13.44;26.52;100879.56;5007491;28;19925;-86
2022/03/23 10:33:57;;;;;;;;;;;;;;;12.98;27.87;100870.13;5007566;28;20020;-86
2022/03/23 10:36:26;;;;;;;;;;;;;;;13.28;28.30;100856.69;5007143;28;19917;-84
2022/03/23 10:38:51;;;;;;;;;;;;;;;13.14;27.40;100856.78;5007609;28;19921;-87
2022/03/23 10:41:25;;;;;;;;;;;;;;;13.22;29.35;100847.91;5007629;28;19917;-85
2022/03/23 10:43:50;;;;;;;;;;;;;;;13.37;27.19;100852.22;5007730;28;19928;-86
2022/03/23 10:46:17;;;;;;;;;;;;;;;13.66;27.69;100850.22;5007954;28;19921;-86
2022/03/23 10:48:51;;;;;;;;;;;;;;;13.45;26.50;100859.22;5007562;28;19917;-85
2022/03/23 10:51:25;;;;;;;;;;;;;;;13.14;26.96;100849.69;5007707;28;19968;-84
2022/03/23 10:53:50;;;;;;;;;;;;;;;13.89;27.48;100842.91;5009395;28;20390;-84
2022/03/23 10:56:16;;;;;;;;;;;;;;;14.07;25.38;100831.22;5011466;28;20290;-85
2022/03/23 10:58:41;;;;;;;;;;;;;;;13.54;26.20;100830.84;5043096;28;20028;-85
2022/03/23 11:01:07;;;;;;;;;;;;;;;13.74;25.97;100821.84;5011647;28;19917;-85
2022/03/23 11:03:34;;;;;;;;;;;;;;;13.63;26.31;100819.31;5011393;28;19918;-85
2022/03/23 11:06:00;;;;;;;;;;;;;;;13.18;25.77;100824.09;5011490;28;19921;-85
2022/03/23 11:08:26;;;;;;;;;;;;;;;13.27;26.45;100824.00;5010806;28;19932;-85
2022/03/23 11:19:05;;;;;;;;;;;;;;;13.92;25.82;100807.53;5011123;28;19921;-85
2022/03/23 11:21:30;;;;;;;;;;;;;;;14.48;24.76;100799.75;5010763;28;19925;-85
2022/03/23 11:23:56;;;;;;;;;;;;;;;14.11;25.27;100792.25;5010509;28;19929;-85
2022/03/23 11:26:21;;;;;;;;;;;;;;;13.76;25.80;100798.84;5010533;28;19928;-86
2022/03/23 11:28:47;;;;;;;;;;;;;;;14.24;25.00;100787.66;5009596;28;20023;-86
2022/03/23 11:31:13;;;;;;;;;;;;;;;14.40;25.82;100788.38;5010893;28;20285;-86
2022/03/23 11:33:39;;;;;;;;;;;;;;;14.57;25.00;100778.38;5025566;28;19926;-86
2022/03/23 11:36:07;;;;;;;;;;;;;;;14.23;23.51;100777.97;5042300;28;19924;-87
2022/03/23 11:38:33;;;;;;;;;;;;;;;14.08;24.45;100773.72;5010100;28;19929;-86
2022/03/23 11:40:59;;;;;;;;;;;;;;;14.40;25.27;100770.66;5010175;28;19925;-85
2022/03/23 11:43:26;;;;;;;;;;;;;;;14.49;23.94;100767.00;5011037;28;19921;-85
2022/03/23 11:45:53;;;;;;;;;;;;;;;14.76;22.84;100752.47;5010160;28;19921;-86
2022/03/23 11:48:24;;;;;;;;;;;;;;;14.26;24.36;100756.69;5011095;28;19944;-86
2022/03/23 11:50:52;;;;;;;;;;;;;;;14.17;24.62;100749.72;5010008;28;19948;-86
2022/03/23 11:53:20;;;;;;;;;;;;;;;14.39;24.48;100745.00;5041787;28;19922;-85
2022/03/23 11:55:48;;;;;;;;;;;;;;;14.77;24.49;100740.06;5010143;28;19921;-85
2022/03/23 11:58:19;;;;;;;;;;;;;;;14.49;23.46;100737.81;5010153;28;20653;-86
2022/03/23 12:00:52;;;;;;;;;;;;;;;14.20;22.90;100738.22;5013446;28;20454;-85
2022/03/23 12:03:45;;;;;;;;;;;;;;;14.27;22.43;100740.75;5010296;28;19929;-85
2022/03/23 12:06:12;;;;;;;;;;;;;;;14.55;22.29;100726.19;5015331;28;19925;-85
2022/03/23 12:08:48;;;;;;;;;;;;;;;14.79;21.93;100715.22;5029990;28;19928;-85
2022/03/23 12:11:33;;;;;;;;;;;;;;;14.59;23.94;100726.13;5029957;28;20034;-86
2022/03/23 12:13:59;;;;;;;;;;;;;;;14.71;23.26;100714.47;5028426;28;19921;-85
2022/03/23 12:16:43;;;;;;;;;;;;;;;14.95;22.39;100715.88;5009945;28;20032;-84
2022/03/23 12:19:10;;;;;;;;;;;;;;;14.73;22.12;100707.34;5009717;28;19953;-84
2022/03/23 12:21:43;;;;;;;;;;;;;;;14.97;21.07;100706.09;5009995;28;19918;-86
2022/03/23 12:24:13;;;;;;;;;;;;;;;14.36;22.63;100707.03;5009841;28;19944;-86
2022/03/23 12:26:43;;;;;;;;;;;;;;;14.38;21.26;100698.16;5009734;28;19925;-86
2022/03/23 12:29:15;;;;;;;;;;;;;;;14.79;21.34;100693.97;5009856;28;19921;-87
2022/03/23 12:31:41;;;;;;;;;;;;;;;14.72;21.08;100692.34;5009613;28;20328;-88
2022/03/23 12:34:07;;;;;;;;;;;;;;;14.85;21.00;100691.22;5009731;28;19930;-87
2022/03/23 12:39:40;;;;;;;;;;;;;;;14.93;20.58;100684.91;5009535;28;19929;-85
2022/03/23 12:42:12;;;;;;;;;;;;;;;15.00;21.43;100679.47;5009395;28;19917;-83
2022/03/23 12:44:39;;;;;;;;;;;;;;;14.90;19.99;100684.97;5009543;28;19918;-83
2022/03/23 12:47:06;;;;;;;;;;;;;;;14.99;20.03;100671.53;5009513;28;19918;-83
2022/03/23 12:58:06;;;;;;;;;;;;;;;15.21;22.30;100666.69;5009179;28;19976;-82
2022/03/23 13:00:32;;;;;;;;;;;;;;;15.46;20.45;100666.22;5009469;28;19932;-81
2022/03/23 13:03:04;;;;;;;;;;;;;;;15.44;20.84;100660.94;5009176;28;19925;-82
2022/03/23 13:05:31;;;;;;;;;;;;;;;15.39;20.08;100657.50;5040838;28;20394;-81
2022/03/23 13:07:57;;;;;;;;;;;;;;;15.34;19.93;100657.59;5009129;28;20012;-82